Time;durP1;ratioP1;P1;durP2;ratioP2;P2;SDS_P1;SDS_P2;PMS_P1;PMS_P2;Temp;Humidity;BMP_temperature;BMP_pressure;BME280_temperature;BME280_humidity;BME280_pressure;Samples;Min_cycle;Max_cycle;Signal;HPM_P1;HPM_P2
2022/07/01 00:00:42;;;;;;;29.23;23.58;;;15.90;99.90;;;;;;5082657;28;20022;-64
2022/07/01 00:03:08;;;;;;;31.60;23.80;;;16.00;99.90;;;;;;5088751;28;20027;-64
2022/07/01 00:05:33;;;;;;;31.85;24.00;;;15.80;99.90;;;;;;5082185;28;20032;-64
2022/07/01 00:07:59;;;;;;;29.38;23.90;;;16.00;99.90;;;;;;5079758;28;20017;-65
2022/07/01 00:10:25;;;;;;;27.55;21.25;;;15.70;99.90;;;;;;5081507;28;20093;-64
2022/07/01 00:12:50;;;;;;;28.83;22.00;;;15.80;99.90;;;;;;5083682;28;20035;-64
2022/07/01 00:15:16;;;;;;;28.38;20.85;;;15.80;99.90;;;;;;5077960;28;20025;-64
2022/07/01 00:17:43;;;;;;;30.50;20.48;;;15.90;99.90;;;;;;5078524;28;20060;-64
2022/07/01 00:20:09;;;;;;;23.63;18.83;;;15.90;99.90;;;;;;5082298;28;20043;-64
2022/07/01 00:22:35;;;;;;;24.70;19.13;;;15.90;99.90;;;;;;5079759;28;20032;-64
2022/07/01 00:25:00;;;;;;;22.65;17.95;;;16.00;99.90;;;;;;5079841;28;20035;-64
2022/07/01 00:27:26;;;;;;;22.35;17.65;;;15.90;99.90;;;;;;5086221;28;20027;-64
2022/07/01 00:29:51;;;;;;;21.83;16.55;;;15.90;99.90;;;;;;5086813;28;20530;-64
2022/07/01 00:32:17;;;;;;;20.58;16.73;;;15.90;99.90;;;;;;5083257;28;20400;-64
2022/07/01 00:34:43;;;;;;;27.60;17.45;;;15.90;99.90;;;;;;5084214;28;20028;-64
2022/07/01 00:37:08;;;;;;;23.13;16.20;;;15.80;99.90;;;;;;5080737;28;20082;-63
2022/07/01 00:39:35;;;;;;;21.98;16.08;;;15.80;99.90;;;;;;5081286;28;20464;-64
2022/07/01 00:42:03;;;;;;;22.13;16.80;;;15.90;99.90;;;;;;5080329;28;20260;-64
2022/07/01 00:44:29;;;;;;;21.55;16.38;;;16.00;99.90;;;;;;5080647;28;20021;-64
2022/07/01 00:46:57;;;;;;;23.90;17.13;;;16.10;99.90;;;;;;5078871;28;20028;-63
2022/07/01 00:49:23;;;;;;;21.35;16.75;;;16.00;99.90;;;;;;5085343;28;20024;-63
2022/07/01 00:51:49;;;;;;;22.42;16.00;;;15.90;99.90;;;;;;5080417;28;20070;-64
2022/07/01 00:54:15;;;;;;;20.13;15.73;;;16.00;99.90;;;;;;5081752;28;20103;-64
2022/07/01 00:56:41;;;;;;;21.10;15.27;;;16.00;99.90;;;;;;5081241;28;20654;-63
2022/07/01 00:59:07;;;;;;;19.40;15.70;;;16.00;99.90;;;;;;5081568;28;20043;-64
2022/07/01 01:01:34;;;;;;;20.10;16.00;;;15.90;99.90;;;;;;5084133;28;20387;-63
2022/07/01 01:04:00;;;;;;;23.55;16.10;;;15.90;99.90;;;;;;5074885;28;20083;-63
2022/07/01 01:06:26;;;;;;;21.10;15.68;;;15.70;99.90;;;;;;5083804;28;20055;-64
2022/07/01 01:08:52;;;;;;;21.85;15.30;;;15.90;99.90;;;;;;5078856;28;20527;-63
2022/07/01 01:11:17;;;;;;;19.73;13.90;;;16.00;99.90;;;;;;5081765;28;20539;-64
2022/07/01 01:13:43;;;;;;;16.38;13.38;;;16.00;99.90;;;;;;5080593;28;20016;-64
2022/07/01 01:16:19;;;;;;;16.67;11.85;;;16.00;99.90;;;;;;5083695;28;20062;-64
2022/07/01 01:18:45;;;;;;;19.95;12.25;;;16.10;99.90;;;;;;5080286;28;20070;-64
2022/07/01 01:21:11;;;;;;;14.52;11.85;;;16.20;99.90;;;;;;5078957;28;20527;-63
2022/07/01 01:23:36;;;;;;;15.95;11.15;;;16.20;99.90;;;;;;5082280;28;20123;-64
2022/07/01 01:26:02;;;;;;;15.20;10.55;;;16.30;99.90;;;;;;5075726;28;20800;-64
2022/07/01 01:28:28;;;;;;;14.13;10.75;;;16.10;99.90;;;;;;5081923;28;20091;-63
2022/07/01 01:30:53;;;;;;;12.30;9.95;;;16.20;99.90;;;;;;5077275;28;20043;-63
2022/07/01 01:33:19;;;;;;;12.45;10.63;;;16.10;99.90;;;;;;5083641;28;20036;-64
2022/07/01 01:35:45;;;;;;;13.60;10.85;;;16.10;99.90;;;;;;5073141;28;20122;-63
2022/07/01 01:38:10;;;;;;;15.43;10.00;;;15.70;99.90;;;;;;5083028;28;20027;-63
2022/07/01 01:40:36;;;;;;;14.60;10.63;;;15.80;99.90;;;;;;5076952;28;20399;-63
2022/07/01 01:43:02;;;;;;;15.68;10.30;;;15.90;99.90;;;;;;5087828;28;20036;-62
2022/07/01 01:45:28;;;;;;;15.70;10.32;;;15.90;99.90;;;;;;5080534;28;20027;-63
2022/07/01 01:47:53;;;;;;;17.83;10.70;;;16.00;99.90;;;;;;5077743;28;20027;-64
2022/07/01 01:50:19;;;;;;;17.65;11.35;;;15.80;99.90;;;;;;5075888;28;20021;-64
2022/07/01 01:52:45;;;;;;;16.42;10.77;;;16.00;99.90;;;;;;5080710;28;20032;-64
2022/07/01 01:55:11;;;;;;;17.63;11.43;;;15.90;99.90;;;;;;5082646;28;20027;-64
2022/07/01 01:57:37;;;;;;;16.10;10.75;;;15.70;99.90;;;;;;5081491;28;20035;-63
2022/07/01 02:00:05;;;;;;;16.48;10.63;;;15.80;99.90;;;;;;5078171;28;20060;-63
2022/07/01 02:02:30;;;;;;;21.88;11.00;;;15.80;99.90;;;;;;5084687;28;20055;-63
2022/07/01 02:04:56;;;;;;;18.55;10.45;;;15.50;99.90;;;;;;5078594;28;20099;-64
2022/07/01 02:07:21;;;;;;;14.65;9.90;;;15.50;99.90;;;;;;5075367;28;20032;-63
2022/07/01 02:09:47;;;;;;;14.82;10.35;;;15.50;99.90;;;;;;5078895;28;20073;-64
2022/07/01 02:12:13;;;;;;;18.80;10.50;;;15.30;99.90;;;;;;5075968;28;20047;-63
2022/07/01 02:14:38;;;;;;;14.80;10.35;;;15.20;99.90;;;;;;5082763;28;20028;-63
2022/07/01 02:17:04;;;;;;;19.13;10.27;;;15.20;99.90;;;;;;5080663;28;20097;-64
2022/07/01 02:19:29;;;;;;;15.32;10.35;;;15.30;99.90;;;;;;5083432;28;20039;-63
2022/07/01 02:21:55;;;;;;;18.90;10.63;;;15.40;99.90;;;;;;5076089;28;20032;-63
2022/07/01 02:24:21;;;;;;;17.83;10.18;;;15.40;99.90;;;;;;5083036;28;20028;-64
2022/07/01 02:26:46;;;;;;;17.38;10.30;;;15.30;99.90;;;;;;5082179;28;20024;-63
2022/07/01 02:29:13;;;;;;;16.48;10.38;;;15.40;99.90;;;;;;5082599;28;20107;-63
2022/07/01 02:31:39;;;;;;;16.63;10.43;;;15.50;99.90;;;;;;5076550;28;20115;-63
2022/07/01 02:34:04;;;;;;;20.42;10.77;;;15.60;99.90;;;;;;5086130;28;20495;-63
2022/07/01 02:36:30;;;;;;;18.23;10.88;;;15.60;99.90;;;;;;5081801;28;20034;-62
2022/07/01 02:38:56;;;;;;;15.13;10.75;;;15.50;99.90;;;;;;5076963;28;20016;-63
2022/07/01 02:41:22;;;;;;;17.75;11.20;;;15.40;99.90;;;;;;5082509;28;20127;-63
2022/07/01 02:43:47;;;;;;;16.25;10.77;;;15.50;99.90;;;;;;5079152;28;20119;-64
2022/07/01 02:46:13;;;;;;;14.77;10.32;;;15.40;99.90;;;;;;5075431;28;20029;-63
2022/07/01 02:48:38;;;;;;;17.92;12.27;;;15.50;99.90;;;;;;5084286;28;20028;-62
2022/07/01 02:51:04;;;;;;;20.88;11.63;;;15.70;99.90;;;;;;5084379;28;20073;-63
2022/07/01 02:53:29;;;;;;;21.27;11.77;;;15.80;99.90;;;;;;5081098;28;20032;-62
2022/07/01 02:55:55;;;;;;;18.77;12.27;;;15.60;99.90;;;;;;5080254;28;20520;-63
2022/07/01 02:58:20;;;;;;;19.63;12.63;;;15.50;99.90;;;;;;5086925;28;20432;-63
2022/07/01 03:00:48;;;;;;;20.45;12.82;;;15.50;99.90;;;;;;5085946;28;20032;-63
2022/07/01 03:03:14;;;;;;;17.45;11.60;;;15.30;99.90;;;;;;5087796;28;20053;-62
2022/07/01 03:05:39;;;;;;;20.42;12.63;;;15.40;99.90;;;;;;5084485;28;20100;-62
2022/07/01 03:08:05;;;;;;;17.67;12.38;;;15.40;99.90;;;;;;5085592;28;20032;-63
2022/07/01 03:10:31;;;;;;;21.50;12.70;;;15.60;99.90;;;;;;5086031;28;20031;-63
2022/07/01 03:12:58;;;;;;;18.30;12.60;;;15.40;99.90;;;;;;5084748;28;20228;-62
2022/07/01 03:15:24;;;;;;;20.55;13.57;;;15.40;99.90;;;;;;5089324;28;20027;-62
2022/07/01 03:17:49;;;;;;;20.38;13.25;;;15.70;99.90;;;;;;5085113;28;20024;-62
2022/07/01 03:20:16;;;;;;;17.40;12.90;;;15.40;99.90;;;;;;5086959;28;20032;-63
2022/07/01 03:22:44;;;;;;;21.33;13.85;;;15.40;99.90;;;;;;5085980;28;20035;-62
2022/07/01 03:25:10;;;;;;;20.80;13.90;;;15.50;99.90;;;;;;5081908;28;20667;-64
2022/07/01 03:27:36;;;;;;;17.95;12.82;;;15.20;99.90;;;;;;5084984;28;20050;-62
2022/07/01 03:30:04;;;;;;;21.58;13.75;;;15.30;99.90;;;;;;5081241;28;20020;-63
2022/07/01 03:32:29;;;;;;;18.70;13.07;;;15.50;99.90;;;;;;5080748;28;20024;-63
2022/07/01 03:34:55;;;;;;;26.98;13.88;;;15.60;99.90;;;;;;5085726;28;20031;-62
2022/07/01 03:37:22;;;;;;;20.52;13.32;;;15.60;99.90;;;;;;5079954;28;20024;-62
2022/07/01 03:39:48;;;;;;;18.05;12.10;;;15.50;99.90;;;;;;5079247;28;20039;-62
2022/07/01 03:42:13;;;;;;;20.20;13.05;;;15.30;99.90;;;;;;5084795;28;20399;-63
2022/07/01 03:44:39;;;;;;;19.23;12.75;;;15.30;99.90;;;;;;5084333;28;20028;-62
2022/07/01 03:47:06;;;;;;;19.10;12.30;;;15.20;99.90;;;;;;5082852;28;20020;-62
2022/07/01 03:49:35;;;;;;;18.98;11.60;;;15.10;99.90;;;;;;5087408;28;20490;-63
2022/07/01 03:52:04;;;;;;;17.23;11.43;;;15.10;99.90;;;;;;5082706;28;20020;-63
2022/07/01 03:54:30;;;;;;;14.55;10.43;;;15.10;99.90;;;;;;5080685;28;20088;-62
2022/07/01 03:57:06;;;;;;;16.13;10.75;;;15.20;99.90;;;;;;5059778;28;20029;-61
2022/07/01 03:59:35;;;;;;;16.50;11.13;;;15.40;99.90;;;;;;5077714;28;20037;-63
2022/07/01 04:02:02;;;;;;;18.38;11.50;;;15.30;99.90;;;;;;5090306;28;20016;-62
2022/07/01 04:04:28;;;;;;;16.52;11.00;;;15.20;99.90;;;;;;5085444;28;20496;-63
2022/07/01 04:06:55;;;;;;;14.55;10.10;;;15.10;99.90;;;;;;5087853;28;20028;-62
2022/07/01 04:09:21;;;;;;;16.85;10.77;;;15.00;99.90;;;;;;5073901;28;20048;-63
2022/07/01 04:11:48;;;;;;;17.48;11.43;;;15.30;99.90;;;;;;5083763;28;20056;-63
2022/07/01 04:14:14;;;;;;;14.70;10.80;;;15.20;99.90;;;;;;5088693;28;20224;-63
2022/07/01 04:16:40;;;;;;;18.38;10.77;;;15.60;99.90;;;;;;5082835;28;20518;-63
2022/07/01 04:19:08;;;;;;;23.13;11.77;;;15.80;99.90;;;;;;5080751;28;20048;-63
2022/07/01 04:24:18;;;;;;;14.07;10.23;;;15.70;99.90;;;;;;5081290;28;20035;-65
2022/07/01 04:26:43;;;;;;;16.08;10.73;;;15.80;99.90;;;;;;5086649;28;20028;-65
2022/07/01 04:29:10;;;;;;;16.10;10.32;;;15.90;99.90;;;;;;5085701;28;20536;-65
2022/07/01 04:31:36;;;;;;;14.48;10.02;;;16.00;99.90;;;;;;5092304;28;20463;-65
2022/07/01 04:34:02;;;;;;;16.98;9.52;;;16.00;99.90;;;;;;5085053;28;20395;-65
2022/07/01 04:36:28;;;;;;;13.52;9.63;;;15.90;99.90;;;;;;5084229;28;20388;-65
2022/07/01 04:38:54;;;;;;;15.45;9.75;;;15.80;99.90;;;;;;5083102;28;20154;-65
2022/07/01 04:44:04;;;;;;;14.75;9.15;;;15.70;99.90;;;;;;5086491;28;20092;-65
2022/07/01 04:46:29;;;;;;;11.65;8.52;;;15.90;99.90;;;;;;5090592;28;20531;-66
2022/07/01 04:48:55;;;;;;;15.70;8.63;;;15.90;99.90;;;;;;5084697;28;20162;-65
2022/07/01 04:51:21;;;;;;;19.80;9.65;;;15.90;99.90;;;;;;5082360;28;20032;-65
2022/07/01 04:53:48;;;;;;;12.70;8.77;;;15.80;99.90;;;;;;5083197;28;20128;-65
2022/07/01 04:56:13;;;;;;;16.10;8.60;;;15.70;99.90;;;;;;5080579;28;20032;-65
2022/07/01 04:58:39;;;;;;;12.38;8.48;;;15.80;99.90;;;;;;5084216;28;20603;-65
2022/07/01 05:01:05;;;;;;;14.80;8.55;;;15.50;99.90;;;;;;5087310;28;20375;-65
2022/07/01 05:03:30;;;;;;;16.17;8.57;;;15.50;99.90;;;;;;5076803;28;20021;-65
2022/07/01 05:05:56;;;;;;;14.30;8.65;;;15.60;99.90;;;;;;5080763;28;20034;-65
2022/07/01 05:08:21;;;;;;;12.00;8.30;;;15.80;99.90;;;;;;5078265;28;20020;-65
2022/07/01 05:10:47;;;;;;;13.05;8.40;;;15.80;99.90;;;;;;5077932;28;20418;-65
2022/07/01 05:13:13;;;;;;;14.38;8.75;;;15.90;99.90;;;;;;5079569;28;20472;-65
2022/07/01 05:15:38;;;;;;;13.63;8.73;;;16.00;99.90;;;;;;5079942;28;20111;-65
2022/07/01 05:23:32;;;;;;;14.55;8.20;;;16.00;99.90;;;;;;5083235;28;20088;-66
2022/07/01 05:25:58;;;;;;;12.88;8.40;;;15.90;99.90;;;;;;5074682;28;20036;-65
2022/07/01 05:28:23;;;;;;;11.32;8.32;;;15.80;99.90;;;;;;5079248;28;20016;-65
2022/07/01 05:30:49;;;;;;;17.77;9.23;;;15.80;99.90;;;;;;5073605;28;20028;-66
2022/07/01 05:33:14;;;;;;;15.48;9.30;;;15.90;99.90;;;;;;5080753;28;20099;-65
2022/07/01 05:35:40;;;;;;;14.50;8.95;;;15.80;99.90;;;;;;5083859;28;20028;-65
2022/07/01 05:38:05;;;;;;;16.50;9.05;;;15.80;99.90;;;;;;5078969;28;20032;-65
2022/07/01 05:40:31;;;;;;;15.60;9.48;;;15.70;99.90;;;;;;5081350;28;20028;-65
2022/07/01 05:42:57;;;;;;;19.25;9.40;;;15.80;99.90;;;;;;5075509;28;20106;-66
2022/07/01 05:45:22;;;;;;;17.17;11.38;;;16.00;99.90;;;;;;5077037;28;20036;-65
2022/07/01 05:47:48;;;;;;;20.45;10.10;;;16.10;99.90;;;;;;5078682;28;20035;-65
2022/07/01 05:50:13;;;;;;;12.90;10.23;;;16.10;99.90;;;;;;5081104;28;20107;-65
2022/07/01 05:52:39;;;;;;;15.75;10.20;;;16.20;99.90;;;;;;5088703;28;20024;-65
2022/07/01 05:55:05;;;;;;;17.35;11.07;;;16.30;99.90;;;;;;5084705;28;20115;-66
2022/07/01 05:57:30;;;;;;;18.65;11.75;;;16.40;99.90;;;;;;5085516;28;20487;-66
2022/07/01 05:59:56;;;;;;;14.35;11.38;;;16.40;99.90;;;;;;5082727;28;20031;-66
2022/07/01 06:02:21;;;;;;;15.18;11.70;;;16.40;99.90;;;;;;5081473;28;20464;-65
2022/07/01 06:04:47;;;;;;;18.60;11.98;;;16.30;99.90;;;;;;5086105;28;20672;-65
2022/07/01 06:07:12;;;;;;;17.17;13.32;;;16.50;99.90;;;;;;5078216;28;20040;-65
2022/07/01 06:09:38;;;;;;;18.80;13.50;;;16.50;99.90;;;;;;5085298;28;20055;-66
2022/07/01 06:12:05;;;;;;;23.15;14.45;;;16.40;99.90;;;;;;5078355;28;20350;-66
2022/07/01 06:14:31;;;;;;;20.23;14.57;;;16.30;99.90;;;;;;5074500;28;20024;-65
2022/07/01 06:16:56;;;;;;;20.35;16.45;;;16.20;99.90;;;;;;5078499;28;20028;-65
2022/07/01 06:19:22;;;;;;;18.30;14.32;;;16.20;99.90;;;;;;5078570;28;20442;-66
2022/07/01 06:21:48;;;;;;;22.25;14.90;;;16.30;99.90;;;;;;5077314;28;20119;-66
2022/07/01 06:24:13;;;;;;;20.48;15.20;;;16.50;99.90;;;;;;5087384;28;20039;-65
2022/07/01 06:26:39;;;;;;;20.70;14.70;;;16.50;99.90;;;;;;5072264;28;20484;-66
2022/07/01 06:29:05;;;;;;;17.88;14.65;;;16.50;99.90;;;;;;5081348;28;20028;-65
2022/07/01 06:31:33;;;;;;;13.95;12.43;;;16.50;99.90;;;;;;5075159;28;20020;-65
2022/07/01 06:33:59;;;;;;;18.73;13.70;;;16.40;99.90;;;;;;5090251;28;20513;-66
2022/07/01 06:36:25;;;;;;;16.35;11.50;;;16.50;99.90;;;;;;5097037;28;20411;-65
2022/07/01 06:38:51;;;;;;;18.33;12.38;;;16.20;99.90;;;;;;5087698;28;20038;-65
2022/07/01 06:41:28;;;;;;;19.83;12.38;;;16.50;99.90;;;;;;5094724;28;20057;-65
2022/07/01 06:43:54;;;;;;;15.93;10.73;;;16.50;99.90;;;;;;5094191;28;20024;-65
2022/07/01 06:46:20;;;;;;;13.18;10.55;;;16.60;99.90;;;;;;5087213;28;20028;-65
2022/07/01 06:48:46;;;;;;;17.77;10.70;;;16.50;99.90;;;;;;5091605;28;20036;-66
2022/07/01 06:51:12;;;;;;;14.63;10.02;;;16.60;99.90;;;;;;5094376;28;20022;-66
2022/07/01 06:53:37;;;;;;;12.18;9.80;;;16.60;99.90;;;;;;5096396;28;20027;-65
2022/07/01 06:56:03;;;;;;;15.85;9.85;;;16.60;99.90;;;;;;5091431;28;20032;-67
2022/07/01 06:58:29;;;;;;;13.20;9.65;;;16.50;99.90;;;;;;5091973;28;20038;-67
2022/07/01 07:00:55;;;;;;;13.25;10.00;;;16.60;99.90;;;;;;5085829;28;20120;-67
2022/07/01 07:03:20;;;;;;;17.63;9.80;;;16.80;99.90;;;;;;5082099;28;20411;-67
2022/07/01 07:05:46;;;;;;;14.02;8.77;;;17.00;99.90;;;;;;5080536;28;20066;-67
2022/07/01 07:08:12;;;;;;;16.48;9.40;;;17.00;99.90;;;;;;5076704;28;20066;-66
2022/07/01 07:10:37;;;;;;;12.75;9.10;;;17.00;99.90;;;;;;5081020;28;20466;-64
2022/07/01 07:13:03;;;;;;;12.18;8.13;;;17.00;99.90;;;;;;5086550;28;20480;-64
2022/07/01 07:15:29;;;;;;;12.90;9.63;;;17.20;99.90;;;;;;5077875;28;20032;-61
2022/07/01 07:17:57;;;;;;;14.75;9.20;;;17.40;99.90;;;;;;5085442;28;20020;-65
2022/07/01 07:20:23;;;;;;;13.77;9.38;;;17.40;99.90;;;;;;5077606;28;20031;-62
2022/07/01 07:22:49;;;;;;;12.43;9.30;;;17.50;99.90;;;;;;5077492;28;20035;-61
2022/07/01 07:25:14;;;;;;;15.13;9.00;;;17.50;99.90;;;;;;5079516;28;20115;-62
2022/07/01 07:27:40;;;;;;;20.92;10.43;;;17.50;99.90;;;;;;5088856;28;20032;-61
2022/07/01 07:30:06;;;;;;;13.45;8.25;;;17.70;99.90;;;;;;5076379;28;20024;-62
2022/07/01 07:32:31;;;;;;;10.35;7.82;;;17.90;99.90;;;;;;5085724;28;20031;-61
2022/07/01 07:34:57;;;;;;;10.90;7.38;;;17.70;99.90;;;;;;5082992;28;20021;-62
2022/07/01 07:37:22;;;;;;;7.97;6.80;;;17.70;99.90;;;;;;5086803;28;20042;-61
2022/07/01 07:39:48;;;;;;;10.18;7.35;;;17.60;99.90;;;;;;5083603;28;20039;-61
2022/07/01 07:42:13;;;;;;;9.27;7.07;;;17.50;99.90;;;;;;5082456;28;20025;-62
2022/07/01 07:44:39;;;;;;;13.55;7.32;;;17.30;99.90;;;;;;5083939;28;20055;-61
2022/07/01 07:47:05;;;;;;;11.10;7.78;;;17.30;99.90;;;;;;5086166;28;20024;-60
2022/07/01 07:49:30;;;;;;;12.77;7.43;;;17.40;99.90;;;;;;5081711;28;20134;-62
2022/07/01 07:51:56;;;;;;;11.57;7.63;;;17.40;99.90;;;;;;5074177;28;20028;-61
2022/07/01 07:54:21;;;;;;;8.90;6.97;;;17.60;99.90;;;;;;5076953;28;20491;-61
2022/07/01 07:56:47;;;;;;;9.23;5.70;;;17.70;99.90;;;;;;5084306;28;20032;-62
2022/07/01 07:59:12;;;;;;;7.28;5.25;;;17.70;99.90;;;;;;5086468;28;20038;-61
2022/07/01 08:01:38;;;;;;;9.38;5.82;;;17.80;99.90;;;;;;5079115;28;20027;-60
2022/07/01 08:04:04;;;;;;;8.70;6.00;;;18.00;99.90;;;;;;5084103;28;20407;-62
2022/07/01 08:06:29;;;;;;;12.52;5.53;;;18.10;99.90;;;;;;5086273;28;20443;-62
2022/07/01 08:08:56;;;;;;;10.07;5.05;;;18.20;99.90;;;;;;5077163;28;20021;-61
2022/07/01 08:11:21;;;;;;;7.70;4.68;;;17.90;99.90;;;;;;5080524;28;20021;-61
2022/07/01 08:13:47;;;;;;;8.93;4.75;;;17.70;99.90;;;;;;5083637;28;20026;-60
2022/07/01 08:16:13;;;;;;;7.70;4.70;;;17.60;99.90;;;;;;5087136;28;20063;-61
2022/07/01 08:18:38;;;;;;;7.00;4.43;;;17.90;99.90;;;;;;5082902;28;20081;-61
2022/07/01 08:21:04;;;;;;;7.68;3.95;;;18.20;99.90;;;;;;5083608;28;20047;-61
2022/07/01 08:23:30;;;;;;;7.97;4.45;;;18.40;99.90;;;;;;5078339;28;20411;-61
2022/07/01 08:25:56;;;;;;;10.05;4.40;;;18.40;99.90;;;;;;5077518;28;20106;-62
2022/07/01 08:28:21;;;;;;;8.75;5.07;;;18.40;99.90;;;;;;5083109;28;20016;-62
2022/07/01 08:30:47;;;;;;;8.50;4.22;;;18.20;99.90;;;;;;5082406;28;20028;-63
2022/07/01 08:33:13;;;;;;;7.45;4.15;;;18.40;99.90;;;;;;5076610;28;20100;-61
2022/07/01 08:35:38;;;;;;;6.55;3.63;;;18.40;99.90;;;;;;5082934;28;20055;-61
2022/07/01 08:38:05;;;;;;;6.78;4.00;;;18.50;99.90;;;;;;5081106;28;20016;-61
2022/07/01 08:40:31;;;;;;;7.07;3.88;;;18.70;99.90;;;;;;5081191;28;20111;-62
2022/07/01 08:43:02;;;;;;;5.95;4.00;;;18.70;99.90;;;;;;5082438;28;20039;-61
2022/07/01 08:45:33;;;;;;;12.10;3.80;;;18.60;99.90;;;;;;5083789;28;20130;-61
2022/07/01 08:48:03;;;;;;;8.07;3.58;;;18.90;99.90;;;;;;5078375;28;20024;-62
2022/07/01 08:50:30;;;;;;;5.78;3.05;;;19.20;99.90;;;;;;5079183;28;20383;-62
2022/07/01 08:52:59;;;;;;;8.93;3.35;;;19.10;99.90;;;;;;5086585;28;20112;-63
2022/07/01 08:55:25;;;;;;;5.88;3.05;;;19.10;99.90;;;;;;5081971;28;20480;-63
2022/07/01 08:57:52;;;;;;;7.07;3.20;;;19.20;99.90;;;;;;5071923;28;20082;-63
2022/07/01 09:00:18;;;;;;;4.85;2.67;;;19.20;99.90;;;;;;5082689;28;20387;-60
2022/07/01 09:02:54;;;;;;;5.25;2.80;;;19.30;99.90;;;;;;5079308;28;20035;-60
2022/07/01 09:05:21;;;;;;;5.38;2.75;;;19.40;99.90;;;;;;5080617;28;20538;-61
2022/07/01 09:07:47;;;;;;;6.25;3.10;;;19.40;99.90;;;;;;5081934;28;20028;-60
2022/07/01 09:10:18;;;;;;;6.13;2.50;;;19.50;99.90;;;;;;5076211;28;20032;-60
2022/07/01 09:12:45;;;;;;;6.75;2.08;;;19.60;99.90;;;;;;5079660;28;20035;-60
2022/07/01 09:15:20;;;;;;;3.38;2.20;;;19.30;99.90;;;;;;5079304;28;20028;-61
2022/07/01 09:17:46;;;;;;;7.43;1.98;;;19.30;99.90;;;;;;5081048;28;20127;-60
2022/07/01 09:20:30;;;;;;;6.80;2.17;;;19.40;99.90;;;;;;5083295;28;20111;-61
2022/07/01 09:23:06;;;;;;;4.55;1.80;;;19.50;99.90;;;;;;5082253;28;20020;-59
2022/07/01 09:25:45;;;;;;;5.70;2.35;;;19.60;99.90;;;;;;5079778;28;20491;-59
2022/07/01 09:28:13;;;;;;;7.32;2.50;;;19.60;99.90;;;;;;5086271;28;20034;-59
2022/07/01 09:30:40;;;;;;;6.55;2.47;;;19.60;99.90;;;;;;5076683;28;20099;-61
2022/07/01 09:33:14;;;;;;;6.35;1.85;;;19.60;99.90;;;;;;5076141;28;20081;-60
2022/07/01 09:35:40;;;;;;;;;;;19.80;99.90;;;;;;5079446;28;20020;-62
2022/07/01 09:38:07;;;;;;;5.78;1.65;;;19.80;99.90;;;;;;5080732;28;20363;-62
2022/07/01 09:40:55;;;;;;;5.78;1.80;;;19.90;99.90;;;;;;5080477;28;20566;-62
2022/07/01 09:43:32;;;;;;;3.95;2.17;;;20.00;99.90;;;;;;5081928;28;20039;-62
2022/07/01 09:46:09;;;;;;;4.78;2.00;;;19.90;99.90;;;;;;5083368;28;20021;-62
2022/07/01 09:48:35;;;;;;;5.88;2.13;;;20.00;99.90;;;;;;5078301;28;20036;-62
2022/07/01 09:51:02;;;;;;;2.53;1.95;;;20.20;99.90;;;;;;5086152;28;20026;-62
2022/07/01 09:53:28;;;;;;;3.55;2.10;;;20.20;99.90;;;;;;5080510;28;20535;-62
2022/07/01 09:55:54;;;;;;;5.60;1.60;;;20.20;99.90;;;;;;5085128;28;20054;-62
2022/07/01 09:58:20;;;;;;;5.88;1.80;;;20.10;99.90;;;;;;5092183;28;20034;-62
2022/07/01 10:00:46;;;;;;;8.57;3.03;;;20.00;99.90;;;;;;5083207;28;21706;-62
2022/07/01 10:03:12;;;;;;;7.40;2.47;;;20.00;99.90;;;;;;5085062;28;20525;-62
2022/07/01 10:06:07;;;;;;;5.00;1.70;;;20.00;99.90;;;;;;5083857;28;20071;-62
2022/07/01 10:09:04;;;;;;;6.80;1.67;;;19.60;99.90;;;;;;5079246;28;20517;-62
2022/07/01 10:11:54;;;;;;;3.60;1.58;;;19.80;99.90;;;;;;5067761;28;20040;-62
2022/07/01 10:14:21;;;;;;;4.63;1.50;;;20.10;99.90;;;;;;5080359;28;20396;-62
2022/07/01 10:16:49;;;;;;;5.95;1.63;;;20.20;99.90;;;;;;5082793;28;20119;-62
2022/07/01 10:19:23;;;;;;;5.82;1.50;;;20.20;99.90;;;;;;5083569;28;20051;-62
2022/07/01 10:21:51;;;;;;;4.85;1.40;;;20.30;99.90;;;;;;5078727;28;20353;-62
2022/07/01 10:24:17;;;;;;;2.72;1.35;;;20.40;99.90;;;;;;5084783;28;20065;-62
2022/07/01 10:26:44;;;;;;;2.42;1.20;;;20.40;99.90;;;;;;5079350;28;20452;-62
2022/07/01 10:29:34;;;;;;;4.70;1.10;;;20.20;99.90;;;;;;5081127;28;20024;-62
2022/07/01 10:32:11;;;;;;;3.03;1.50;;;20.30;99.90;;;;;;5078354;28;20123;-62
2022/07/01 10:34:41;;;;;;;4.43;1.25;;;20.40;99.90;;;;;;5081941;28;20099;-62
2022/07/01 10:37:11;;;;;;;3.65;1.40;;;20.30;99.90;;;;;;5075622;28;20028;-62
2022/07/01 10:39:57;;;;;;;4.85;1.08;;;20.10;99.90;;;;;;5079018;28;20067;-62
2022/07/01 10:42:28;;;;;;;4.68;1.00;;;20.10;99.90;;;;;;5074435;28;20024;-62
2022/07/01 10:45:10;;;;;;;3.50;0.93;;;20.20;99.90;;;;;;5075086;28;20055;-62
2022/07/01 10:47:38;;;;;;;2.83;0.90;;;20.10;99.90;;;;;;5075613;28;20115;-62
2022/07/01 10:50:09;;;;;;;7.78;1.00;;;20.10;99.90;;;;;;5080657;28;20031;-62
2022/07/01 10:52:35;;;;;;;4.13;1.00;;;19.80;99.90;;;;;;5087079;28;20028;-62
2022/07/01 10:55:06;;;;;;;2.90;0.90;;;20.00;99.90;;;;;;5079253;28;20090;-62
2022/07/01 10:57:38;;;;;;;4.35;1.00;;;20.00;99.90;;;;;;5081980;28;20119;-62
2022/07/01 11:00:04;;;;;;;5.00;1.00;;;20.10;99.90;;;;;;5078375;28;20615;-62
2022/07/01 11:02:37;;;;;;;5.75;0.98;;;20.30;99.90;;;;;;5081089;28;20127;-62
2022/07/01 11:05:14;;;;;;;2.97;1.00;;;20.40;99.90;;;;;;5075887;28;20480;-62
2022/07/01 11:07:42;;;;;;;6.75;0.95;;;20.50;99.90;;;;;;5073736;28;20035;-62
2022/07/01 11:10:10;;;;;;;4.50;1.13;;;20.50;99.90;;;;;;5078973;28;20091;-62
2022/07/01 11:12:35;;;;;;;2.38;0.90;;;20.50;99.90;;;;;;5088520;28;20089;-62
2022/07/01 11:15:03;;;;;;;5.57;1.08;;;20.60;99.90;;;;;;5083249;28;20468;-62
2022/07/01 11:17:28;;;;;;;2.85;1.05;;;20.60;99.90;;;;;;5081960;28;20141;-62
2022/07/01 11:19:58;;;;;;;4.60;0.90;;;20.50;99.90;;;;;;5080648;28;20036;-62
2022/07/01 11:22:29;;;;;;;2.63;0.85;;;20.40;99.90;;;;;;5083707;28;20571;-62
2022/07/01 11:25:06;;;;;;;2.20;0.95;;;20.50;99.90;;;;;;5086177;28;20157;-62
2022/07/01 11:27:32;;;;;;;2.80;0.90;;;20.60;99.90;;;;;;5081883;28;20657;-62
2022/07/01 11:30:00;;;;;;;3.95;0.82;;;20.90;99.90;;;;;;5084873;28;20080;-62
2022/07/01 11:32:32;;;;;;;2.80;0.98;;;20.90;99.90;;;;;;5081716;28;20035;-62
2022/07/01 11:35:01;;;;;;;4.70;1.27;;;21.20;99.90;;;;;;5087455;28;20056;-62
2022/07/01 11:40:17;;;;;;;2.35;1.10;;;21.20;99.90;;;;;;5077438;28;20723;-61
2022/07/01 11:42:44;;;;;;;5.55;1.08;;;21.10;99.90;;;;;;5087437;28;20031;-61
2022/07/01 11:45:24;;;;;;;7.65;1.25;;;21.20;99.90;;;;;;5090853;28;20031;-61
2022/07/01 11:47:50;;;;;;;2.33;0.70;;;21.50;99.90;;;;;;5089648;28;20044;-61
2022/07/01 11:50:16;;;;;;;4.50;1.10;;;21.60;99.90;;;;;;5079882;28;20111;-62
2022/07/01 11:52:41;;;;;;;3.53;0.80;;;21.40;99.90;;;;;;5088731;28;20028;-62
2022/07/01 11:55:07;;;;;;;2.67;0.73;;;21.40;99.90;;;;;;5080128;28;20218;-62
2022/07/01 11:57:34;;;;;;;3.38;0.90;;;21.40;99.90;;;;;;5080365;28;20048;-61
2022/07/01 12:00:11;;;;;;;3.38;0.80;;;21.40;99.90;;;;;;5082819;28;20028;-62
2022/07/01 12:02:37;;;;;;;3.65;1.00;;;21.60;99.90;;;;;;5083387;28;20472;-62
2022/07/01 12:05:04;;;;;;;2.55;0.70;;;21.70;99.90;;;;;;5076562;28;20047;-62
2022/07/01 12:07:31;;;;;;;4.97;0.65;;;21.70;99.90;;;;;;5086722;28;20031;-62
2022/07/01 12:09:57;;;;;;;3.05;0.80;;;21.90;99.90;;;;;;5080362;28;20547;-62
2022/07/01 12:12:25;;;;;;;2.53;0.90;;;21.90;99.90;;;;;;5084518;28;20028;-62
2022/07/01 12:14:56;;;;;;;2.80;1.02;;;21.90;99.90;;;;;;5080150;28;20162;-61
2022/07/01 12:17:22;;;;;;;2.38;0.65;;;21.90;99.90;;;;;;5086919;28;20039;-61
2022/07/01 12:19:49;;;;;;;2.55;0.70;;;21.90;99.90;;;;;;5085289;28;20032;-61
2022/07/01 12:22:23;;;;;;;2.17;0.95;;;22.10;99.90;;;;;;5087732;28;20086;-62
2022/07/01 12:24:49;;;;;;;4.25;1.10;;;21.80;99.90;;;;;;5078698;28;20024;-62
2022/07/01 12:27:16;;;;;;;2.72;0.73;;;22.10;99.90;;;;;;5079803;28;20158;-62
2022/07/01 12:29:50;;;;;;;3.17;0.93;;;22.00;99.90;;;;;;5082373;28;20024;-63
2022/07/01 12:32:24;;;;;;;4.53;0.75;;;22.10;99.90;;;;;;5079055;28;20092;-63
2022/07/01 12:34:57;;;;;;;2.60;0.75;;;22.10;99.90;;;;;;5082764;28;20535;-63
2022/07/01 12:37:26;;;;;;;2.20;0.60;;;22.10;99.90;;;;;;5083689;28;20032;-63
2022/07/01 12:39:57;;;;;;;4.85;1.33;;;21.90;99.90;;;;;;5083678;28;20036;-62
2022/07/01 12:42:33;;;;;;;3.03;1.08;;;21.60;99.90;;;;;;5079208;28;20025;-63
2022/07/01 12:45:05;;;;;;;4.32;0.88;;;21.40;99.90;;;;;;5083531;28;20025;-63
2022/07/01 12:47:39;;;;;;;3.65;0.80;;;21.40;99.90;;;;;;5077029;28;20028;-63
2022/07/01 12:50:33;;;;;;;1.13;0.70;;;21.60;99.90;;;;;;5081372;28;20572;-63